Terminal Aerodrome Forecast
Issued by NWS Knoxville/Tri Cities, TN

Home | Current Version | Previous Version | Text Only | Print | Product List | Glossary On
Versions: 1 2 3 4 5 6 7 8 9 10 11 12 13 14 15 16 17 18 19 20 21 22 23 24 25 26
000
FTUS44 KMRX 242320
TAFTYS
TAF
KTYS 242320Z 2500/2524 02008KT P6SM OVC050
     FM250600 00000KT 4SM BR OVC020
     FM251400 28005KT P6SM SCT025 BKN050
     FM251800 28005KT P6SM FEW250=

USA.gov is the U.S. government's official web portal to all federal, state and local government web resources and services.